createdAt,value
2024-04-24T00:01:46.679Z,4.84
2024-04-24T00:04:14.317Z,4.76
2024-04-24T00:06:41.891Z,4.82
2024-04-24T00:09:09.481Z,4.73
2024-04-24T00:11:39.834Z,4.83
2024-04-24T00:14:07.351Z,4.82
2024-04-24T00:16:34.770Z,4.79
2024-04-24T00:19:02.238Z,4.77
2024-04-24T00:21:29.590Z,4.74
2024-04-24T00:23:57.167Z,4.72
2024-04-24T00:26:24.774Z,4.82
2024-04-24T00:28:55.019Z,4.79
2024-04-24T00:31:22.571Z,4.74
2024-04-24T00:33:50.221Z,4.59
2024-04-24T00:36:17.796Z,4.67
2024-04-24T00:38:45.376Z,4.68
2024-04-24T00:41:13.047Z,4.67
2024-04-24T00:43:40.449Z,4.67
2024-04-24T00:46:10.548Z,4.68
2024-04-24T00:48:38.231Z,4.67
2024-04-24T00:51:05.955Z,4.64
2024-04-24T00:53:33.394Z,4.54
2024-04-24T00:56:00.818Z,4.55
2024-04-24T00:58:28.268Z,4.63
2024-04-24T01:00:56.219Z,4.58
2024-04-24T01:03:26.462Z,4.58
2024-04-24T01:05:54.024Z,4.61
2024-04-24T01:08:21.517Z,4.58
2024-04-24T01:10:55.438Z,4.53
2024-04-24T01:13:23.030Z,4.52
2024-04-24T01:15:51.068Z,4.53
2024-04-24T01:18:18.841Z,4.51
2024-04-24T01:20:48.950Z,4.51
2024-04-24T01:23:22.548Z,4.40
2024-04-24T01:25:53.288Z,4.39
2024-04-24T01:28:23.587Z,4.38
2024-04-24T01:30:51.678Z,4.38
2024-04-24T01:33:19.326Z,4.35
2024-04-24T01:35:46.879Z,4.34
2024-04-24T01:38:14.260Z,4.32
2024-04-24T01:40:42.046Z,4.35
2024-04-24T01:43:09.505Z,4.26
2024-04-24T01:45:39.696Z,4.30
2024-04-24T01:48:07.902Z,4.34
2024-04-24T01:50:35.646Z,4.35
2024-04-24T01:53:03.493Z,4.35
2024-04-24T01:55:31.145Z,4.39
2024-04-24T01:57:58.540Z,4.39
2024-04-24T02:00:26.069Z,4.36
2024-04-24T02:02:56.231Z,4.34
2024-04-24T02:05:23.643Z,4.35
2024-04-24T02:07:51.148Z,4.38
2024-04-24T02:10:18.477Z,4.34
2024-04-24T02:12:46.062Z,4.29
2024-04-24T02:15:13.758Z,4.31
2024-04-24T02:17:41.320Z,4.28
2024-04-24T02:20:11.554Z,4.33
2024-04-24T02:22:38.911Z,4.28
2024-04-24T02:25:07.043Z,4.34
2024-04-24T02:27:34.490Z,4.21
2024-04-24T02:30:01.971Z,4.29
2024-04-24T02:32:29.516Z,4.28
2024-04-24T02:34:57.224Z,4.25
2024-04-24T02:37:27.294Z,4.24
2024-04-24T02:39:54.653Z,4.25
2024-04-24T02:42:22.275Z,4.23
2024-04-24T02:44:49.756Z,4.22
2024-04-24T02:47:17.399Z,4.20
2024-04-24T02:49:44.981Z,4.26
2024-04-24T02:52:12.773Z,4.30
2024-04-24T02:54:42.765Z,4.30
2024-04-24T02:57:10.163Z,4.31
2024-04-24T02:59:37.596Z,4.30
2024-04-24T03:02:05.157Z,4.25
2024-04-24T03:04:32.568Z,4.20
2024-04-24T03:06:59.927Z,4.22
2024-04-24T03:09:28.182Z,4.28
2024-04-24T03:11:59.057Z,4.35
2024-04-24T03:14:26.965Z,4.26
2024-04-24T03:16:54.392Z,4.21
2024-04-24T03:19:21.882Z,4.24
2024-04-24T03:21:49.282Z,4.29
2024-04-24T03:24:16.767Z,4.29
2024-04-24T03:26:44.195Z,4.24
2024-04-24T03:29:15.013Z,4.26
2024-04-24T03:31:43.427Z,4.26
2024-04-24T03:34:10.821Z,4.31
2024-04-24T03:36:38.151Z,4.37
2024-04-24T03:39:05.812Z,4.43
2024-04-24T03:41:33.215Z,4.51
2024-04-24T03:44:00.761Z,4.52
2024-04-24T03:46:30.847Z,4.53
2024-04-24T03:48:58.264Z,4.40
2024-04-24T03:51:25.854Z,4.35
2024-04-24T03:53:53.317Z,4.38
2024-04-24T03:56:21.298Z,4.43
2024-04-24T03:58:48.979Z,4.43
2024-04-24T04:01:16.594Z,4.50
2024-04-24T04:03:46.664Z,4.40
2024-04-24T04:06:14.007Z,4.24
2024-04-24T04:08:41.432Z,4.23
2024-04-24T04:11:08.900Z,4.30
2024-04-24T04:13:36.389Z,4.27
2024-04-24T04:16:03.994Z,4.29
2024-04-24T04:18:31.840Z,4.37
2024-04-24T04:21:01.919Z,4.36
2024-04-24T04:23:29.584Z,4.38
2024-04-24T04:25:57.057Z,4.38
2024-04-24T04:28:24.446Z,4.38
2024-04-24T04:30:51.898Z,4.41
2024-04-24T04:33:19.495Z,4.23
2024-04-24T04:35:46.913Z,4.25
2024-04-24T04:38:16.950Z,4.24
2024-04-24T04:40:44.321Z,4.29
2024-04-24T04:43:11.958Z,4.31
2024-04-24T04:45:39.286Z,4.34
2024-04-24T04:48:07.585Z,4.40
2024-04-24T04:50:35.289Z,4.46
2024-04-24T04:53:02.799Z,4.48
2024-04-24T04:55:33.059Z,4.45
2024-04-24T04:58:01.154Z,4.46
2024-04-24T05:00:28.739Z,4.49
2024-04-24T05:02:56.316Z,4.63
2024-04-24T05:05:23.861Z,4.57
2024-04-24T05:07:51.472Z,4.55
2024-04-24T05:10:18.890Z,4.54
2024-04-24T05:12:49.001Z,4.43
2024-04-24T05:15:16.627Z,4.60
2024-04-24T05:17:44.257Z,4.64
2024-04-24T05:20:11.877Z,4.58
2024-04-24T05:22:39.324Z,4.60
2024-04-24T05:25:07.504Z,4.53
2024-04-24T05:27:35.299Z,4.50
2024-04-24T05:30:06.588Z,4.54
2024-04-24T05:32:34.075Z,4.61
2024-04-24T05:35:01.943Z,4.70
2024-04-24T05:37:29.536Z,4.77
2024-04-24T05:39:57.018Z,4.72
2024-04-24T05:42:24.352Z,4.74
2024-04-24T05:44:51.874Z,4.81
2024-04-24T05:47:22.009Z,5.00
2024-04-24T05:49:49.600Z,4.98
2024-04-24T05:52:17.037Z,5.11
2024-04-24T05:54:44.463Z,5.16
2024-04-24T05:57:11.943Z,5.23
2024-04-24T05:59:39.389Z,5.32
2024-04-24T06:02:06.910Z,5.18
2024-04-24T06:04:37.026Z,5.11
2024-04-24T06:07:04.418Z,5.18
2024-04-24T06:09:32.784Z,5.32
2024-04-24T06:12:00.291Z,5.27
2024-04-24T06:14:27.999Z,5.22
2024-04-24T06:16:55.598Z,5.34
2024-04-24T06:19:23.013Z,5.21
2024-04-24T06:21:53.125Z,5.37
2024-04-24T06:24:20.622Z,5.48
2024-04-24T06:26:48.171Z,5.48
2024-04-24T06:29:15.869Z,5.51
2024-04-24T06:31:43.399Z,5.59
2024-04-24T06:34:11.411Z,5.74
2024-04-24T06:36:38.938Z,5.76
2024-04-24T06:39:09.362Z,5.85
2024-04-24T06:41:36.959Z,5.90
2024-04-24T06:44:04.625Z,5.90
2024-04-24T06:46:32.106Z,6.00
2024-04-24T06:48:59.653Z,6.13
2024-04-24T06:51:27.380Z,6.28
2024-04-24T06:53:54.904Z,6.33
2024-04-24T06:56:25.248Z,6.49
2024-04-24T06:58:52.803Z,6.60
2024-04-24T07:01:20.355Z,6.58
2024-04-24T07:03:48.055Z,6.72
2024-04-24T07:06:15.761Z,6.86
2024-04-24T07:08:43.697Z,6.77
2024-04-24T07:11:11.076Z,6.91
2024-04-24T07:13:41.417Z,6.99
2024-04-24T07:16:08.951Z,7.15
2024-04-24T07:18:36.362Z,7.10
2024-04-24T07:21:04.086Z,7.10
2024-04-24T07:23:31.706Z,7.07
2024-04-24T07:25:59.116Z,7.20
2024-04-24T07:28:26.614Z,7.26
2024-04-24T07:30:56.643Z,7.27
2024-04-24T07:33:24.333Z,7.43
2024-04-24T07:35:51.996Z,7.49
2024-04-24T07:38:19.388Z,7.54
2024-04-24T07:40:46.912Z,7.45
2024-04-24T07:43:14.261Z,7.31
2024-04-24T07:45:41.990Z,7.15
2024-04-24T07:48:12.204Z,7.17
2024-04-24T07:50:39.882Z,7.11
2024-04-24T07:53:07.763Z,7.26
2024-04-24T07:55:35.420Z,7.11
2024-04-24T07:58:02.814Z,7.20
2024-04-24T08:00:30.264Z,7.37
2024-04-24T08:02:57.764Z,7.15
2024-04-24T08:05:27.832Z,6.92
2024-04-24T08:07:55.412Z,7.01
2024-04-24T08:10:23.220Z,6.81
2024-04-24T08:12:50.626Z,6.74
2024-04-24T08:15:18.054Z,6.83
2024-04-24T08:17:45.730Z,6.86
2024-04-24T08:20:13.450Z,7.00
2024-04-24T08:22:43.478Z,6.87
2024-04-24T08:25:10.828Z,7.00
2024-04-24T08:27:38.438Z,6.77
2024-04-24T08:30:06.840Z,6.82
2024-04-24T08:32:34.720Z,7.11
2024-04-24T08:35:02.381Z,7.25
2024-04-24T08:37:29.849Z,7.29
2024-04-24T08:39:59.857Z,7.08
2024-04-24T08:42:27.492Z,6.97
2024-04-24T08:44:55.032Z,6.92
2024-04-24T08:47:22.788Z,6.87
2024-04-24T08:49:50.505Z,7.31
2024-04-24T08:52:18.198Z,7.28
2024-04-24T08:54:45.729Z,7.43
2024-04-24T08:57:15.952Z,7.41
2024-04-24T08:59:43.607Z,7.08
2024-04-24T09:02:11.621Z,7.00
2024-04-24T09:04:41.122Z,7.10
2024-04-24T09:07:09.064Z,7.01
2024-04-24T09:09:36.937Z,7.27
2024-04-24T09:12:05.502Z,7.28
2024-04-24T09:14:35.886Z,7.16
2024-04-24T09:17:03.784Z,7.09
2024-04-24T09:19:31.268Z,7.30
2024-04-24T09:21:58.916Z,7.70
2024-04-24T09:24:26.522Z,7.82
2024-04-24T09:26:53.980Z,7.63
2024-04-24T09:29:21.485Z,7.79
2024-04-24T09:31:51.601Z,8.18
2024-04-24T09:34:19.128Z,8.00
2024-04-24T09:36:48.444Z,8.02
2024-04-24T09:39:16.484Z,8.49
2024-04-24T09:41:44.044Z,8.66
2024-04-24T09:44:11.946Z,8.70
2024-04-24T09:46:46.011Z,8.89
2024-04-24T09:49:16.097Z,8.66
2024-04-24T09:51:43.674Z,8.69
2024-04-24T09:54:11.151Z,8.88
2024-04-24T09:56:42.333Z,8.95
2024-04-24T09:59:10.955Z,8.93
2024-04-24T10:01:38.562Z,9.05
2024-04-24T10:04:06.751Z,9.08
2024-04-24T10:06:36.882Z,9.45
2024-04-24T10:09:04.751Z,9.57
2024-04-24T10:11:35.176Z,8.74
2024-04-24T10:14:03.053Z,8.47
2024-04-24T10:16:31.125Z,8.39
2024-04-24T10:18:58.587Z,8.73
2024-04-24T10:21:26.357Z,8.58
2024-04-24T10:23:56.430Z,8.44
2024-04-24T10:26:24.010Z,8.61
2024-04-24T10:28:51.435Z,8.52
2024-04-24T10:31:18.903Z,8.75
2024-04-24T10:33:46.390Z,8.76
2024-04-24T10:36:13.752Z,8.64
2024-04-24T10:38:43.862Z,8.66
2024-04-24T10:41:13.948Z,8.70
2024-04-24T10:43:42.223Z,8.60
2024-04-24T10:46:09.791Z,8.71
2024-04-24T10:48:54.251Z,8.96
2024-04-24T10:51:27.935Z,9.51
2024-04-24T10:53:58.375Z,9.60
2024-04-24T10:56:33.159Z,9.59
2024-04-24T10:59:01.806Z,9.64
2024-04-24T11:01:42.173Z,9.54
2024-04-24T11:04:15.671Z,9.95
2024-04-24T11:06:43.170Z,9.94
2024-04-24T11:09:11.549Z,9.91
2024-04-24T11:11:41.849Z,9.83
2024-04-24T11:14:12.354Z,9.77
2024-04-24T11:16:42.125Z,9.56
2024-04-24T11:19:09.802Z,9.57
2024-04-24T11:21:37.501Z,9.96
2024-04-24T11:24:05.850Z,9.97
2024-04-24T11:26:34.010Z,9.84
2024-04-24T11:29:05.492Z,9.94
2024-04-24T11:31:35.005Z,9.90
2024-04-24T11:34:02.626Z,10.26
2024-04-24T11:36:30.234Z,10.41
2024-04-24T11:38:57.640Z,10.04
2024-04-24T11:41:25.290Z,9.70
2024-04-24T11:43:52.682Z,9.92
2024-04-24T11:46:23.267Z,10.03
2024-04-24T11:48:52.340Z,9.40
2024-04-24T11:51:22.598Z,9.21
2024-04-24T11:53:50.809Z,9.30
2024-04-24T11:56:18.498Z,9.71
2024-04-24T11:58:46.212Z,10.24
2024-04-24T12:01:13.641Z,10.18
2024-04-24T12:03:43.740Z,10.21
2024-04-24T12:06:11.089Z,10.30
2024-04-24T12:08:38.529Z,10.19
2024-04-24T12:11:06.272Z,10.13
2024-04-24T12:13:34.196Z,9.85
2024-04-24T12:16:02.273Z,9.83
2024-04-24T12:18:30.360Z,9.65
2024-04-24T12:21:02.496Z,9.44
2024-04-24T12:23:32.174Z,9.52
2024-04-24T12:25:59.612Z,9.26
2024-04-24T12:28:27.632Z,9.49
2024-04-24T12:30:56.432Z,9.41
2024-04-24T12:33:25.236Z,9.39
2024-04-24T12:35:52.802Z,9.62
2024-04-24T12:38:23.179Z,9.46
2024-04-24T12:40:50.770Z,9.59
2024-04-24T12:43:18.242Z,9.87
2024-04-24T12:45:48.141Z,9.90
2024-04-24T12:48:15.674Z,9.86
2024-04-24T12:50:43.034Z,10.11
2024-04-24T12:53:10.586Z,10.55
2024-04-24T12:55:41.703Z,10.94
2024-04-24T12:58:09.298Z,10.45
2024-04-24T13:00:38.239Z,10.42
2024-04-24T13:03:06.270Z,10.47
2024-04-24T13:05:33.954Z,10.40
2024-04-24T13:08:01.433Z,10.49
2024-04-24T13:10:28.892Z,10.32
2024-04-24T13:12:58.941Z,10.27
2024-04-24T13:15:26.613Z,10.59
2024-04-24T13:17:54.170Z,11.22
2024-04-24T13:20:21.806Z,11.22
2024-04-24T13:22:49.230Z,10.92
2024-04-24T13:25:17.390Z,10.76
2024-04-24T13:27:45.045Z,10.59
2024-04-24T13:30:15.177Z,10.72
2024-04-24T13:32:42.614Z,11.29
2024-04-24T13:35:10.182Z,11.53
2024-04-24T13:37:37.575Z,11.60
2024-04-24T13:40:05.815Z,10.95
2024-04-24T13:42:33.471Z,10.62
2024-04-24T13:45:00.949Z,10.46
2024-04-24T13:47:31.090Z,10.04
2024-04-24T13:49:58.677Z,9.90
2024-04-24T13:52:26.387Z,9.98
2024-04-24T13:54:54.070Z,10.27
2024-04-24T13:57:21.650Z,10.31
2024-04-24T13:59:49.079Z,10.24
2024-04-24T14:02:16.482Z,10.12
2024-04-24T14:04:46.606Z,10.12
2024-04-24T14:07:13.972Z,9.72
2024-04-24T14:09:41.902Z,9.60
2024-04-24T14:12:09.781Z,9.64
2024-04-24T14:14:37.569Z,9.43
2024-04-24T14:17:05.246Z,9.38
2024-04-24T14:19:32.888Z,9.31
2024-04-24T14:22:03.083Z,9.28
2024-04-24T14:24:30.687Z,9.16
2024-04-24T14:26:58.122Z,9.04
2024-04-24T14:29:25.634Z,9.23
2024-04-24T14:31:53.029Z,9.33
2024-04-24T14:34:20.488Z,9.44
2024-04-24T14:36:47.842Z,9.24
2024-04-24T14:39:18.061Z,9.22
2024-04-24T14:41:45.637Z,9.31
2024-04-24T14:44:13.113Z,9.29
2024-04-24T14:46:40.608Z,9.28
2024-04-24T14:49:08.164Z,9.30
2024-04-24T14:51:35.752Z,9.26
2024-04-24T14:54:03.273Z,9.17
2024-04-24T14:56:33.382Z,9.00
2024-04-24T14:59:00.977Z,8.55
2024-04-24T15:01:28.637Z,8.11
2024-04-24T15:03:56.251Z,8.05
2024-04-24T15:06:23.602Z,7.90
2024-04-24T15:08:51.073Z,7.81
2024-04-24T15:11:18.517Z,7.50
2024-04-24T15:13:48.656Z,7.43
2024-04-24T15:16:16.461Z,7.47
2024-04-24T15:18:43.844Z,7.49
2024-04-24T15:21:11.369Z,7.45
2024-04-24T15:23:38.875Z,7.54
2024-04-24T15:26:06.382Z,7.51
2024-04-24T15:28:33.788Z,7.47
2024-04-24T15:31:03.823Z,7.61
2024-04-24T15:33:31.599Z,7.77
2024-04-24T15:35:59.173Z,7.79
2024-04-24T15:38:26.877Z,7.65
2024-04-24T15:40:54.415Z,7.94
2024-04-24T15:43:22.018Z,8.05
2024-04-24T15:45:49.639Z,8.30
2024-04-24T15:48:19.780Z,8.45
2024-04-24T15:50:47.339Z,8.33
2024-04-24T15:53:14.805Z,8.47
2024-04-24T15:55:42.526Z,8.57
2024-04-24T15:58:10.079Z,8.45
2024-04-24T16:00:37.436Z,8.54
2024-04-24T16:03:05.557Z,8.41
2024-04-24T16:05:35.568Z,8.56
2024-04-24T16:08:02.954Z,8.36
2024-04-24T16:10:30.398Z,8.31
2024-04-24T16:12:57.782Z,8.43
2024-04-24T16:15:25.258Z,8.67
2024-04-24T16:17:52.868Z,8.70
2024-04-24T16:20:20.556Z,8.49
2024-04-24T16:22:50.562Z,8.65
2024-04-24T16:25:18.280Z,9.10
2024-04-24T16:27:45.993Z,9.45
2024-04-24T16:30:13.604Z,9.50
2024-04-24T16:32:41.312Z,9.63
2024-04-24T16:35:08.823Z,9.57
2024-04-24T16:37:36.421Z,9.37
2024-04-24T16:40:07.456Z,9.11
2024-04-24T16:42:34.989Z,9.37
2024-04-24T16:45:02.449Z,9.21
2024-04-24T16:47:30.024Z,8.86
2024-04-24T16:49:57.998Z,9.14
2024-04-24T16:52:25.422Z,8.82
2024-04-24T16:54:52.793Z,8.86
2024-04-24T16:57:22.811Z,8.83
2024-04-24T16:59:50.271Z,8.87
2024-04-24T17:02:17.668Z,8.70
2024-04-24T17:04:45.398Z,8.68
2024-04-24T17:07:12.941Z,8.75
2024-04-24T17:09:40.398Z,8.47
2024-04-24T17:12:08.120Z,8.50
2024-04-24T17:14:38.313Z,8.51
2024-04-24T17:17:06.090Z,8.37
2024-04-24T17:19:33.772Z,8.41
2024-04-24T17:22:01.390Z,8.28
2024-04-24T17:24:29.136Z,8.26
2024-04-24T17:26:56.638Z,8.20
2024-04-24T17:29:24.367Z,8.19
2024-04-24T17:31:54.797Z,8.16
2024-04-24T17:34:22.298Z,7.85
2024-04-24T17:36:49.830Z,7.87
2024-04-24T17:39:17.229Z,7.89
2024-04-24T17:41:44.946Z,7.95
2024-04-24T17:44:12.509Z,7.76
2024-04-24T17:46:39.923Z,7.75
2024-04-24T17:49:10.082Z,7.65
2024-04-24T17:51:37.476Z,7.68
2024-04-24T17:54:05.125Z,7.66
2024-04-24T17:56:32.473Z,7.63
2024-04-24T17:59:00.159Z,7.58
2024-04-24T18:01:27.614Z,7.44
2024-04-24T18:03:55.232Z,7.28
2024-04-24T18:06:25.402Z,7.27
2024-04-24T18:08:52.971Z,7.27
2024-04-24T18:11:20.795Z,7.20
2024-04-24T18:13:48.547Z,7.14
2024-04-24T18:16:16.196Z,7.07
2024-04-24T18:18:43.714Z,6.96
2024-04-24T18:21:11.381Z,6.84
2024-04-24T18:23:41.493Z,6.84
2024-04-24T18:26:09.407Z,6.82
2024-04-24T18:28:37.201Z,6.73
2024-04-24T18:31:05.155Z,6.66
2024-04-24T18:33:32.771Z,6.64
2024-04-24T18:36:00.732Z,6.49
2024-04-24T18:38:28.263Z,6.58
2024-04-24T18:40:58.694Z,6.60
2024-04-24T18:43:26.251Z,6.59
2024-04-24T18:45:53.677Z,6.59
2024-04-24T18:48:21.445Z,6.60
2024-04-24T18:50:52.094Z,6.52
2024-04-24T18:53:19.733Z,6.54
2024-04-24T18:55:47.164Z,6.49
2024-04-24T18:58:17.186Z,6.52
2024-04-24T19:00:44.631Z,6.52
2024-04-24T19:03:12.077Z,6.51
2024-04-24T19:05:39.565Z,6.53
2024-04-24T19:08:07.488Z,6.53
2024-04-24T19:10:35.043Z,6.49
2024-04-24T19:13:02.732Z,6.50
2024-04-24T19:15:32.828Z,6.54
2024-04-24T19:18:00.481Z,6.58
2024-04-24T19:20:29.445Z,6.56
2024-04-24T19:22:57.970Z,6.54
2024-04-24T19:25:25.375Z,6.50
2024-04-24T19:27:52.731Z,6.41
2024-04-24T19:30:20.197Z,6.44
2024-04-24T19:32:50.377Z,6.42
2024-04-24T19:35:17.859Z,6.35
2024-04-24T19:37:45.219Z,6.31
2024-04-24T19:40:12.745Z,6.31
2024-04-24T19:42:40.171Z,6.24
2024-04-24T19:45:08.431Z,6.19
2024-04-24T19:47:36.174Z,6.21
2024-04-24T19:50:06.905Z,6.20
2024-04-24T19:52:34.360Z,6.20
2024-04-24T19:55:01.781Z,6.16
2024-04-24T19:57:29.153Z,6.17
2024-04-24T19:59:56.665Z,6.14
2024-04-24T20:02:27.098Z,6.12
2024-04-24T20:04:56.227Z,6.00
2024-04-24T20:07:26.308Z,6.00
2024-04-24T20:09:53.876Z,6.00
2024-04-24T20:12:21.388Z,6.00
2024-04-24T20:14:49.228Z,6.00
2024-04-24T20:17:16.992Z,5.96
2024-04-24T20:19:44.475Z,5.85
2024-04-24T20:22:12.117Z,5.88
2024-04-24T20:24:42.178Z,5.85
2024-04-24T20:27:09.821Z,5.81
2024-04-24T20:29:37.769Z,5.73
2024-04-24T20:32:05.736Z,5.64
2024-04-24T20:34:33.676Z,5.58
2024-04-24T20:37:01.097Z,5.49
2024-04-24T20:39:28.580Z,5.42
2024-04-24T20:41:58.637Z,5.41
2024-04-24T20:44:26.059Z,5.35
2024-04-24T20:46:53.837Z,5.33
2024-04-24T20:49:21.247Z,5.30
2024-04-24T20:51:48.977Z,5.29
2024-04-24T20:54:16.440Z,5.28
2024-04-24T20:56:43.883Z,5.27
2024-04-24T20:59:14.025Z,5.18
2024-04-24T21:01:41.504Z,5.20
2024-04-24T21:04:09.186Z,5.22
2024-04-24T21:06:36.836Z,5.20
2024-04-24T21:09:04.648Z,5.20
2024-04-24T21:11:32.538Z,5.19
2024-04-24T21:13:59.956Z,5.14
2024-04-24T21:16:30.115Z,5.13
2024-04-24T21:18:57.594Z,5.09
2024-04-24T21:21:25.348Z,5.10
2024-04-24T21:23:53.062Z,5.05
2024-04-24T21:26:20.779Z,5.06
2024-04-24T21:28:48.190Z,4.95
2024-04-24T21:31:15.613Z,4.96
2024-04-24T21:33:45.691Z,4.92
2024-04-24T21:36:13.419Z,4.90
2024-04-24T21:38:41.226Z,4.96
2024-04-24T21:41:17.922Z,4.97
2024-04-24T21:43:45.463Z,4.86
2024-04-24T21:46:13.101Z,4.85
2024-04-24T21:48:40.520Z,4.73
2024-04-24T21:51:10.917Z,4.82
2024-04-24T21:53:38.820Z,4.82
2024-04-24T21:56:06.505Z,4.79
2024-04-24T21:58:33.918Z,4.81
2024-04-24T22:01:01.372Z,4.77
2024-04-24T22:03:29.342Z,4.74
2024-04-24T22:05:56.802Z,4.66
2024-04-24T22:08:27.011Z,4.55
2024-04-24T22:10:54.559Z,4.49
2024-04-24T22:13:22.192Z,4.43
2024-04-24T22:15:49.610Z,4.27
2024-04-24T22:18:17.135Z,4.25
2024-04-24T22:20:44.680Z,4.23
2024-04-24T22:23:12.296Z,4.21
2024-04-24T22:25:42.320Z,4.18
2024-04-24T22:28:09.635Z,4.16
2024-04-24T22:30:37.040Z,4.15
2024-04-24T22:33:04.916Z,4.12
2024-04-24T22:35:32.584Z,4.04
2024-04-24T22:38:00.761Z,4.05
2024-04-24T22:40:28.111Z,3.96
2024-04-24T22:42:58.055Z,3.90
2024-04-24T22:45:25.480Z,3.87
2024-04-24T22:47:52.995Z,3.76
2024-04-24T22:50:20.505Z,3.71
2024-04-24T22:52:47.898Z,3.78
2024-04-24T22:55:15.340Z,3.88
2024-04-24T22:57:42.677Z,3.95
2024-04-24T23:00:15.613Z,3.97
2024-04-24T23:02:43.060Z,3.89
2024-04-24T23:05:10.501Z,3.96
2024-04-24T23:07:37.863Z,3.96
2024-04-24T23:10:05.962Z,3.91
2024-04-24T23:12:33.887Z,3.90
2024-04-24T23:15:01.238Z,3.92
2024-04-24T23:17:31.369Z,3.92
2024-04-24T23:19:58.913Z,3.99
2024-04-24T23:22:26.244Z,4.07
2024-04-24T23:24:53.745Z,4.03
2024-04-24T23:27:21.090Z,4.07
2024-04-24T23:29:48.517Z,4.10
2024-04-24T23:32:15.894Z,3.95
2024-04-24T23:34:45.932Z,3.85
2024-04-24T23:37:13.273Z,3.86
2024-04-24T23:39:40.605Z,3.80
2024-04-24T23:42:07.966Z,3.74
2024-04-24T23:44:35.571Z,3.74
2024-04-24T23:47:03.126Z,3.72
2024-04-24T23:49:31.447Z,3.75
2024-04-24T23:52:01.453Z,3.77
2024-04-24T23:54:28.799Z,3.61
2024-04-24T23:56:56.159Z,3.55
2024-04-24T23:59:23.762Z,3.55
